Strona główna
METAR-TAF:

METAR-TAF

Lotnisko :

Port lotniczy Satu Mare

Satu Mare, Rumunia

Szerokość geograficzna: 47-48N, Długość geograficzna: 022-53E, wysokość: 123 m

Aktualna obserwacja pogody

Raport powstał 34 minut temu, godzina 22:30 UTC
Wiatr 2 kt od wschód
Temperatura 14°C
Wilgotność 88%
Ciśnienie 1016 hPa
Widzialność 10 km lub więcej

METAR: LRSM 172230Z AUTO 10002KT 9999 NCD 14/12 Q1016

czas: 02:04 (23:04 UTC)

Prognoza

Raport powstał 21 godziny i 4 minut temu, godzina 02:00 UTC
Prognoza ważna od 17 godzina 03 UTC do 17 godzina 12 UTC
Wiatr 4 kt z kierunków zmiennych
Widzialność 10 km lub więcej
Brak chmur poniżej 1500 m i brak chmur cumulonimbus
Stopniowe zmiany
od 17 godzina 09 UTC do 17 godzina 11 UTC
Wiatr 10 kt od zachód

TAF: LRSM 170200Z 1703/1712 VRB04KT CAVOK BECMG 1709/1711 27010KT

Obserwacja i prognoza pogody dla ponad 4000 lotnisk (raport METAR i TAF).

Dostępne stacje oznaczono żółtymi i czerwonymi punktami na mapie.

Najedź kursorem aby zobaczyć nazwę stacji.

Kliknij aby zobaczyć obserwacje i prognozy pogody.

Aby zmienić mapę: kliknij na zielony przycisk z czarnym krzyżykiem, aby powiększyć; na zielony przycisk z myślnikiem, aby pomniejszyć; na zielone strzałki, aby przejść do map sąsiednich.


METAR-TAF: